sensor_id;sensor_type;location;lat;lon;timestamp;pressure;altitude;pressure_sealevel;temperature
40199;BMP280;25906;43.536;26.068;2022-12-18T00:02:33;99336.31;;;7.36
40199;BMP280;25906;43.536;26.068;2022-12-18T00:05:19;99334.97;;;7.29
40199;BMP280;25906;43.536;26.068;2022-12-18T00:08:04;99344.19;;;7.13
40199;BMP280;25906;43.536;26.068;2022-12-18T00:10:50;99353.44;;;7.05
40199;BMP280;25906;43.536;26.068;2022-12-18T00:13:35;99368.44;;;7.34
40199;BMP280;25906;43.536;26.068;2022-12-18T00:16:23;99369.00;;;7.19
40199;BMP280;25906;43.536;26.068;2022-12-18T00:19:09;99374.44;;;7.06
40199;BMP280;25906;43.536;26.068;2022-12-18T00:21:55;99375.66;;;6.85
40199;BMP280;25906;43.536;26.068;2022-12-18T00:24:40;99379.31;;;6.75
40199;BMP280;25906;43.536;26.068;2022-12-18T00:27:26;99377.69;;;6.92
40199;BMP280;25906;43.536;26.068;2022-12-18T00:30:11;99391.59;;;6.96
40199;BMP280;25906;43.536;26.068;2022-12-18T00:32:57;99396.22;;;6.95
40199;BMP280;25906;43.536;26.068;2022-12-18T00:35:42;99402.59;;;6.85
40199;BMP280;25906;43.536;26.068;2022-12-18T00:38:28;99407.59;;;6.68
40199;BMP280;25906;43.536;26.068;2022-12-18T00:41:15;99408.78;;;6.80
40199;BMP280;25906;43.536;26.068;2022-12-18T00:44:23;99411.59;;;6.75
40199;BMP280;25906;43.536;26.068;2022-12-18T00:47:09;99401.91;;;6.59
40199;BMP280;25906;43.536;26.068;2022-12-18T00:49:54;99412.53;;;6.64
40199;BMP280;25906;43.536;26.068;2022-12-18T00:52:40;99410.50;;;6.44
40199;BMP280;25906;43.536;26.068;2022-12-18T00:55:26;99410.06;;;6.40
40199;BMP280;25906;43.536;26.068;2022-12-18T00:58:13;99404.91;;;6.30
40199;BMP280;25906;43.536;26.068;2022-12-18T01:00:59;99414.44;;;6.31
40199;BMP280;25906;43.536;26.068;2022-12-18T01:03:44;99410.97;;;6.43
40199;BMP280;25906;43.536;26.068;2022-12-18T01:06:33;99412.88;;;6.48
40199;BMP280;25906;43.536;26.068;2022-12-18T01:09:18;99409.66;;;6.24
40199;BMP280;25906;43.536;26.068;2022-12-18T01:12:04;99400.66;;;6.21
40199;BMP280;25906;43.536;26.068;2022-12-18T01:14:50;99413.19;;;6.19
40199;BMP280;25906;43.536;26.068;2022-12-18T01:17:35;99418.03;;;6.20
40199;BMP280;25906;43.536;26.068;2022-12-18T01:20:21;99427.34;;;6.19
40199;BMP280;25906;43.536;26.068;2022-12-18T01:23:06;99429.91;;;6.25
40199;BMP280;25906;43.536;26.068;2022-12-18T01:25:52;99432.09;;;6.13
40199;BMP280;25906;43.536;26.068;2022-12-18T01:28:37;99445.97;;;6.30
40199;BMP280;25906;43.536;26.068;2022-12-18T01:31:28;99441.69;;;6.09
40199;BMP280;25906;43.536;26.068;2022-12-18T01:34:14;99439.44;;;6.13
40199;BMP280;25906;43.536;26.068;2022-12-18T01:37:02;99441.78;;;6.03
40199;BMP280;25906;43.536;26.068;2022-12-18T01:39:48;99437.88;;;5.73
40199;BMP280;25906;43.536;26.068;2022-12-18T01:42:35;99438.25;;;5.95
40199;BMP280;25906;43.536;26.068;2022-12-18T01:45:30;99438.13;;;5.88
40199;BMP280;25906;43.536;26.068;2022-12-18T01:48:15;99438.47;;;5.66
40199;BMP280;25906;43.536;26.068;2022-12-18T01:51:01;99439.56;;;5.76
40199;BMP280;25906;43.536;26.068;2022-12-18T01:53:47;99442.13;;;5.69
40199;BMP280;25906;43.536;26.068;2022-12-18T01:56:33;99449.63;;;5.88
40199;BMP280;25906;43.536;26.068;2022-12-18T01:59:18;99451.97;;;5.79
40199;BMP280;25906;43.536;26.068;2022-12-18T02:02:04;99457.50;;;5.68
40199;BMP280;25906;43.536;26.068;2022-12-18T02:04:49;99466.88;;;5.62
40199;BMP280;25906;43.536;26.068;2022-12-18T02:29:15;99491.50;;;5.29
40199;BMP280;25906;43.536;26.068;2022-12-18T02:32:02;99493.97;;;5.45
40199;BMP280;25906;43.536;26.068;2022-12-18T02:34:50;99494.63;;;5.15
40199;BMP280;25906;43.536;26.068;2022-12-18T02:37:39;99492.44;;;5.31
40199;BMP280;25906;43.536;26.068;2022-12-18T02:40:26;99496.44;;;5.25
40199;BMP280;25906;43.536;26.068;2022-12-18T02:43:14;99494.75;;;5.40
40199;BMP280;25906;43.536;26.068;2022-12-18T02:46:01;99500.13;;;5.22
40199;BMP280;25906;43.536;26.068;2022-12-18T02:52:34;99503.69;;;5.30
40199;BMP280;25906;43.536;26.068;2022-12-18T02:59:09;99525.03;;;5.23
40199;BMP280;25906;43.536;26.068;2022-12-18T03:05:00;99530.53;;;5.30
40199;BMP280;25906;43.536;26.068;2022-12-18T03:07:59;99528.78;;;5.32
40199;BMP280;25906;43.536;26.068;2022-12-18T03:10:51;99525.88;;;5.12
40199;BMP280;25906;43.536;26.068;2022-12-18T03:13:46;99525.06;;;5.17
40199;BMP280;25906;43.536;26.068;2022-12-18T03:16:34;99529.72;;;5.17
40199;BMP280;25906;43.536;26.068;2022-12-18T03:19:22;99531.63;;;4.98
40199;BMP280;25906;43.536;26.068;2022-12-18T03:22:10;99536.38;;;5.10
40199;BMP280;25906;43.536;26.068;2022-12-18T03:24:56;99551.59;;;5.02
40199;BMP280;25906;43.536;26.068;2022-12-18T03:27:47;99552.00;;;5.12
40199;BMP280;25906;43.536;26.068;2022-12-18T03:30:36;99552.47;;;5.10
40199;BMP280;25906;43.536;26.068;2022-12-18T03:33:27;99565.75;;;5.03
40199;BMP280;25906;43.536;26.068;2022-12-18T03:36:15;99565.13;;;5.15
40199;BMP280;25906;43.536;26.068;2022-12-18T03:39:00;99564.34;;;5.20
40199;BMP280;25906;43.536;26.068;2022-12-18T03:42:04;99566.47;;;5.03
40199;BMP280;25906;43.536;26.068;2022-12-18T03:48:18;99579.09;;;5.08
40199;BMP280;25906;43.536;26.068;2022-12-18T03:51:09;99575.91;;;4.86
40199;BMP280;25906;43.536;26.068;2022-12-18T03:53:58;99575.19;;;5.09
40199;BMP280;25906;43.536;26.068;2022-12-18T03:56:48;99583.91;;;5.15
40199;BMP280;25906;43.536;26.068;2022-12-18T03:59:36;99592.91;;;5.18
40199;BMP280;25906;43.536;26.068;2022-12-18T04:02:23;99604.84;;;5.17
40199;BMP280;25906;43.536;26.068;2022-12-18T04:05:10;99615.38;;;5.15
40199;BMP280;25906;43.536;26.068;2022-12-18T04:07:57;99606.88;;;5.11
40199;BMP280;25906;43.536;26.068;2022-12-18T04:10:42;99601.41;;;5.22
40199;BMP280;25906;43.536;26.068;2022-12-18T04:13:32;99610.00;;;4.91
40199;BMP280;25906;43.536;26.068;2022-12-18T04:16:18;99610.81;;;4.80
40199;BMP280;25906;43.536;26.068;2022-12-18T04:19:04;99613.97;;;4.84
40199;BMP280;25906;43.536;26.068;2022-12-18T04:21:49;99617.63;;;4.81
40199;BMP280;25906;43.536;26.068;2022-12-18T04:24:35;99624.75;;;4.79
40199;BMP280;25906;43.536;26.068;2022-12-18T04:27:21;99617.69;;;4.76
40199;BMP280;25906;43.536;26.068;2022-12-18T04:30:07;99625.38;;;4.90
40199;BMP280;25906;43.536;26.068;2022-12-18T04:32:53;99622.69;;;4.90
40199;BMP280;25906;43.536;26.068;2022-12-18T04:35:41;99639.81;;;4.82
40199;BMP280;25906;43.536;26.068;2022-12-18T04:38:26;99634.16;;;4.91
40199;BMP280;25906;43.536;26.068;2022-12-18T04:41:12;99640.41;;;4.99
40199;BMP280;25906;43.536;26.068;2022-12-18T04:43:57;99646.50;;;4.99
40199;BMP280;25906;43.536;26.068;2022-12-18T04:46:43;99643.41;;;4.90
40199;BMP280;25906;43.536;26.068;2022-12-18T04:49:28;99646.25;;;4.74
40199;BMP280;25906;43.536;26.068;2022-12-18T04:52:14;99648.50;;;4.64
40199;BMP280;25906;43.536;26.068;2022-12-18T04:54:59;99658.91;;;4.73
40199;BMP280;25906;43.536;26.068;2022-12-18T04:57:45;99665.72;;;4.74
40199;BMP280;25906;43.536;26.068;2022-12-18T05:00:30;99664.06;;;4.71
40199;BMP280;25906;43.536;26.068;2022-12-18T05:03:16;99666.66;;;4.82
40199;BMP280;25906;43.536;26.068;2022-12-18T05:06:02;99664.53;;;4.75
40199;BMP280;25906;43.536;26.068;2022-12-18T05:08:48;99663.47;;;4.83
40199;BMP280;25906;43.536;26.068;2022-12-18T05:11:33;99665.91;;;4.81
40199;BMP280;25906;43.536;26.068;2022-12-18T05:14:21;99676.59;;;4.92
40199;BMP280;25906;43.536;26.068;2022-12-18T05:17:07;99677.34;;;4.53
40199;BMP280;25906;43.536;26.068;2022-12-18T05:19:53;99677.31;;;4.58
40199;BMP280;25906;43.536;26.068;2022-12-18T05:22:38;99674.66;;;4.53
40199;BMP280;25906;43.536;26.068;2022-12-18T05:25:24;99676.38;;;4.50
40199;BMP280;25906;43.536;26.068;2022-12-18T05:28:10;99690.13;;;4.36
40199;BMP280;25906;43.536;26.068;2022-12-18T05:30:57;99689.91;;;4.34
40199;BMP280;25906;43.536;26.068;2022-12-18T05:33:43;99695.47;;;4.36
40199;BMP280;25906;43.536;26.068;2022-12-18T05:36:29;99703.22;;;4.45
40199;BMP280;25906;43.536;26.068;2022-12-18T05:39:14;99706.69;;;4.40
40199;BMP280;25906;43.536;26.068;2022-12-18T05:41:59;99712.69;;;4.51
40199;BMP280;25906;43.536;26.068;2022-12-18T05:44:45;99722.94;;;4.53
40199;BMP280;25906;43.536;26.068;2022-12-18T05:47:31;99727.97;;;4.67
40199;BMP280;25906;43.536;26.068;2022-12-18T05:50:16;99738.78;;;4.51
40199;BMP280;25906;43.536;26.068;2022-12-18T05:53:03;99751.75;;;4.41
40199;BMP280;25906;43.536;26.068;2022-12-18T05:55:48;99754.81;;;4.62
40199;BMP280;25906;43.536;26.068;2022-12-18T05:58:34;99759.94;;;4.60
40199;BMP280;25906;43.536;26.068;2022-12-18T06:01:24;99764.75;;;4.72
40199;BMP280;25906;43.536;26.068;2022-12-18T06:04:10;99772.53;;;4.75
40199;BMP280;25906;43.536;26.068;2022-12-18T06:06:56;99773.72;;;4.80
40199;BMP280;25906;43.536;26.068;2022-12-18T06:09:41;99779.06;;;4.85
40199;BMP280;25906;43.536;26.068;2022-12-18T06:12:26;99780.69;;;4.94
40199;BMP280;25906;43.536;26.068;2022-12-18T06:15:12;99790.75;;;4.88
40199;BMP280;25906;43.536;26.068;2022-12-18T06:17:57;99789.03;;;4.85
40199;BMP280;25906;43.536;26.068;2022-12-18T06:20:43;99788.00;;;4.93
40199;BMP280;25906;43.536;26.068;2022-12-18T06:23:28;99795.94;;;4.75
40199;BMP280;25906;43.536;26.068;2022-12-18T06:26:14;99807.81;;;4.90
40199;BMP280;25906;43.536;26.068;2022-12-18T06:29:00;99801.16;;;4.97
40199;BMP280;25906;43.536;26.068;2022-12-18T06:31:45;99804.50;;;5.08
40199;BMP280;25906;43.536;26.068;2022-12-18T06:34:30;99822.78;;;5.10
40199;BMP280;25906;43.536;26.068;2022-12-18T06:37:16;99822.63;;;5.02
40199;BMP280;25906;43.536;26.068;2022-12-18T06:40:02;99821.41;;;4.98
40199;BMP280;25906;43.536;26.068;2022-12-18T06:42:47;99820.63;;;5.08
40199;BMP280;25906;43.536;26.068;2022-12-18T06:45:33;99818.47;;;5.01
40199;BMP280;25906;43.536;26.068;2022-12-18T06:48:19;99816.09;;;4.92
40199;BMP280;25906;43.536;26.068;2022-12-18T06:51:05;99808.22;;;5.00
40199;BMP280;25906;43.536;26.068;2022-12-18T06:53:50;99822.03;;;5.15
40199;BMP280;25906;43.536;26.068;2022-12-18T06:56:36;99817.19;;;5.08
40199;BMP280;25906;43.536;26.068;2022-12-18T06:59:21;99828.41;;;5.12
40199;BMP280;25906;43.536;26.068;2022-12-18T07:02:11;99835.53;;;5.33
40199;BMP280;25906;43.536;26.068;2022-12-18T07:04:56;99837.06;;;5.29
40199;BMP280;25906;43.536;26.068;2022-12-18T07:07:42;99843.88;;;5.30
40199;BMP280;25906;43.536;26.068;2022-12-18T07:10:27;99844.91;;;5.27
40199;BMP280;25906;43.536;26.068;2022-12-18T07:13:13;99849.56;;;5.21
40199;BMP280;25906;43.536;26.068;2022-12-18T07:16:10;99853.00;;;5.16
40199;BMP280;25906;43.536;26.068;2022-12-18T07:18:56;99857.69;;;5.15
40199;BMP280;25906;43.536;26.068;2022-12-18T07:21:41;99875.50;;;5.07
40199;BMP280;25906;43.536;26.068;2022-12-18T07:24:27;99880.00;;;5.29
40199;BMP280;25906;43.536;26.068;2022-12-18T07:27:13;99897.28;;;4.98
40199;BMP280;25906;43.536;26.068;2022-12-18T07:29:59;99898.75;;;5.34
40199;BMP280;25906;43.536;26.068;2022-12-18T07:32:44;99894.50;;;5.15
40199;BMP280;25906;43.536;26.068;2022-12-18T07:35:30;99907.06;;;5.36
40199;BMP280;25906;43.536;26.068;2022-12-18T07:38:15;99904.53;;;5.14
40199;BMP280;25906;43.536;26.068;2022-12-18T07:41:03;99912.41;;;5.41
40199;BMP280;25906;43.536;26.068;2022-12-18T07:43:49;99918.47;;;5.42
40199;BMP280;25906;43.536;26.068;2022-12-18T07:46:34;99921.53;;;5.22
40199;BMP280;25906;43.536;26.068;2022-12-18T07:49:20;99929.47;;;5.44
40199;BMP280;25906;43.536;26.068;2022-12-18T07:52:05;99927.47;;;5.50
40199;BMP280;25906;43.536;26.068;2022-12-18T07:54:51;99937.13;;;5.69
40199;BMP280;25906;43.536;26.068;2022-12-18T07:57:36;99934.78;;;5.55
40199;BMP280;25906;43.536;26.068;2022-12-18T08:00:22;99942.91;;;6.02
40199;BMP280;25906;43.536;26.068;2022-12-18T08:03:07;99934.97;;;5.91
40199;BMP280;25906;43.536;26.068;2022-12-18T08:05:58;99952.94;;;5.73
40199;BMP280;25906;43.536;26.068;2022-12-18T08:08:44;99950.56;;;5.64
40199;BMP280;25906;43.536;26.068;2022-12-18T08:11:29;99941.19;;;5.81
40199;BMP280;25906;43.536;26.068;2022-12-18T08:14:14;99935.38;;;5.72
40199;BMP280;25906;43.536;26.068;2022-12-18T08:17:00;99938.59;;;5.65
40199;BMP280;25906;43.536;26.068;2022-12-18T08:19:45;99940.69;;;5.77
40199;BMP280;25906;43.536;26.068;2022-12-18T08:22:34;99934.44;;;5.69
40199;BMP280;25906;43.536;26.068;2022-12-18T08:25:19;99931.59;;;5.85
40199;BMP280;25906;43.536;26.068;2022-12-18T08:28:05;99929.41;;;5.84
40199;BMP280;25906;43.536;26.068;2022-12-18T08:30:53;99938.50;;;5.81
40199;BMP280;25906;43.536;26.068;2022-12-18T08:33:39;99937.88;;;5.93
40199;BMP280;25906;43.536;26.068;2022-12-18T08:36:24;99944.53;;;5.87
40199;BMP280;25906;43.536;26.068;2022-12-18T08:39:10;99945.97;;;5.88
40199;BMP280;25906;43.536;26.068;2022-12-18T08:41:56;99952.41;;;5.80
40199;BMP280;25906;43.536;26.068;2022-12-18T08:45:00;99954.63;;;5.76
40199;BMP280;25906;43.536;26.068;2022-12-18T08:47:46;99959.03;;;5.73
40199;BMP280;25906;43.536;26.068;2022-12-18T08:50:31;99948.72;;;5.83
40199;BMP280;25906;43.536;26.068;2022-12-18T08:53:16;99949.69;;;5.85
40199;BMP280;25906;43.536;26.068;2022-12-18T08:56:03;99958.09;;;5.71
40199;BMP280;25906;43.536;26.068;2022-12-18T08:58:51;99960.50;;;5.74
40199;BMP280;25906;43.536;26.068;2022-12-18T09:01:37;99949.38;;;5.59
40199;BMP280;25906;43.536;26.068;2022-12-18T09:04:23;99946.72;;;5.88
40199;BMP280;25906;43.536;26.068;2022-12-18T09:07:08;99945.09;;;5.80
40199;BMP280;25906;43.536;26.068;2022-12-18T09:09:54;99948.59;;;5.99
40199;BMP280;25906;43.536;26.068;2022-12-18T09:12:39;99949.56;;;6.01
40199;BMP280;25906;43.536;26.068;2022-12-18T09:15:25;99955.22;;;5.92
40199;BMP280;25906;43.536;26.068;2022-12-18T09:18:11;99953.50;;;5.95
40199;BMP280;25906;43.536;26.068;2022-12-18T09:20:57;99942.63;;;6.11
40199;BMP280;25906;43.536;26.068;2022-12-18T09:23:42;99940.06;;;5.95
40199;BMP280;25906;43.536;26.068;2022-12-18T09:26:28;99947.91;;;6.17
40199;BMP280;25906;43.536;26.068;2022-12-18T09:29:15;99953.88;;;6.10
40199;BMP280;25906;43.536;26.068;2022-12-18T09:32:00;99955.66;;;6.02
40199;BMP280;25906;43.536;26.068;2022-12-18T09:34:46;99951.88;;;6.16
40199;BMP280;25906;43.536;26.068;2022-12-18T09:37:31;99941.94;;;5.76
40199;BMP280;25906;43.536;26.068;2022-12-18T09:40:20;99938.28;;;6.03
40199;BMP280;25906;43.536;26.068;2022-12-18T09:43:06;99953.13;;;6.09
40199;BMP280;25906;43.536;26.068;2022-12-18T09:45:59;99947.44;;;5.89
40199;BMP280;25906;43.536;26.068;2022-12-18T09:48:49;99945.31;;;6.11
40199;BMP280;25906;43.536;26.068;2022-12-18T09:51:40;99940.28;;;5.97
40199;BMP280;25906;43.536;26.068;2022-12-18T09:54:41;99936.69;;;6.18
40199;BMP280;25906;43.536;26.068;2022-12-18T09:57:29;99942.22;;;6.26
40199;BMP280;25906;43.536;26.068;2022-12-18T10:00:21;99935.28;;;6.36
40199;BMP280;25906;43.536;26.068;2022-12-18T10:03:12;99945.19;;;6.46
40199;BMP280;25906;43.536;26.068;2022-12-18T10:06:14;99944.53;;;6.40
40199;BMP280;25906;43.536;26.068;2022-12-18T10:12:32;99948.91;;;6.19
40199;BMP280;25906;43.536;26.068;2022-12-18T10:18:25;99957.25;;;6.16
40199;BMP280;25906;43.536;26.068;2022-12-18T10:21:18;99964.28;;;6.19
40199;BMP280;25906;43.536;26.068;2022-12-18T10:27:16;99944.53;;;6.40
40199;BMP280;25906;43.536;26.068;2022-12-18T10:30:25;99954.34;;;6.38
40199;BMP280;25906;43.536;26.068;2022-12-18T10:33:23;99965.41;;;6.29
40199;BMP280;25906;43.536;26.068;2022-12-18T10:36:09;99965.00;;;6.43
40199;BMP280;25906;43.536;26.068;2022-12-18T10:39:14;99969.72;;;6.37
40199;BMP280;25906;43.536;26.068;2022-12-18T10:42:19;99970.75;;;6.34
40199;BMP280;25906;43.536;26.068;2022-12-18T10:45:09;99973.22;;;6.56
40199;BMP280;25906;43.536;26.068;2022-12-18T10:47:55;99978.69;;;6.45
40199;BMP280;25906;43.536;26.068;2022-12-18T10:50:46;99985.94;;;6.32
40199;BMP280;25906;43.536;26.068;2022-12-18T10:53:35;99992.78;;;6.33
40199;BMP280;25906;43.536;26.068;2022-12-18T10:56:21;99993.88;;;6.19
40199;BMP280;25906;43.536;26.068;2022-12-18T10:59:11;100003.31;;;6.31
40199;BMP280;25906;43.536;26.068;2022-12-18T11:01:57;99992.72;;;6.38
40199;BMP280;25906;43.536;26.068;2022-12-18T11:04:51;99990.38;;;6.29
40199;BMP280;25906;43.536;26.068;2022-12-18T11:07:48;99998.31;;;6.40
40199;BMP280;25906;43.536;26.068;2022-12-18T11:10:36;100006.50;;;6.53
40199;BMP280;25906;43.536;26.068;2022-12-18T11:13:25;99999.06;;;6.11
40199;BMP280;25906;43.536;26.068;2022-12-18T11:16:18;100002.91;;;6.21
40199;BMP280;25906;43.536;26.068;2022-12-18T11:19:19;100002.50;;;6.36
40199;BMP280;25906;43.536;26.068;2022-12-18T11:28:00;100011.50;;;6.43
40199;BMP280;25906;43.536;26.068;2022-12-18T11:30:46;100002.13;;;6.50
40199;BMP280;25906;43.536;26.068;2022-12-18T11:33:31;100013.25;;;6.41
40199;BMP280;25906;43.536;26.068;2022-12-18T11:36:18;100006.00;;;6.54
40199;BMP280;25906;43.536;26.068;2022-12-18T11:39:17;100013.25;;;6.36
40199;BMP280;25906;43.536;26.068;2022-12-18T11:42:09;100019.44;;;6.54
40199;BMP280;25906;43.536;26.068;2022-12-18T11:48:14;100014.97;;;6.62
40199;BMP280;25906;43.536;26.068;2022-12-18T11:51:04;100016.41;;;6.63
40199;BMP280;25906;43.536;26.068;2022-12-18T11:53:54;100022.53;;;6.64
40199;BMP280;25906;43.536;26.068;2022-12-18T11:56:49;100018.34;;;6.68
40199;BMP280;25906;43.536;26.068;2022-12-18T12:06:10;100016.88;;;6.67
40199;BMP280;25906;43.536;26.068;2022-12-18T12:33:52;100020.34;;;6.62
40199;BMP280;25906;43.536;26.068;2022-12-18T12:39:40;100027.84;;;6.93
40199;BMP280;25906;43.536;26.068;2022-12-18T12:42:44;100030.31;;;6.91
40199;BMP280;25906;43.536;26.068;2022-12-18T12:46:06;100021.88;;;6.29
40199;BMP280;25906;43.536;26.068;2022-12-18T12:48:56;100032.38;;;6.32
40199;BMP280;25906;43.536;26.068;2022-12-18T12:51:46;100043.63;;;6.31
40199;BMP280;25906;43.536;26.068;2022-12-18T12:54:33;100039.13;;;6.68
40199;BMP280;25906;43.536;26.068;2022-12-18T12:57:29;100050.03;;;6.81
40199;BMP280;25906;43.536;26.068;2022-12-18T13:00:18;100052.28;;;6.77
40199;BMP280;25906;43.536;26.068;2022-12-18T13:03:23;100054.66;;;6.56
40199;BMP280;25906;43.536;26.068;2022-12-18T13:16:06;100067.34;;;6.61
40199;BMP280;25906;43.536;26.068;2022-12-18T13:18:56;100075.78;;;6.47
40199;BMP280;25906;43.536;26.068;2022-12-18T13:21:53;100072.84;;;6.45
40199;BMP280;25906;43.536;26.068;2022-12-18T13:24:39;100078.22;;;6.50
40199;BMP280;25906;43.536;26.068;2022-12-18T13:36:08;100088.47;;;6.52
40199;BMP280;25906;43.536;26.068;2022-12-18T13:44:51;100119.25;;;6.22
40199;BMP280;25906;43.536;26.068;2022-12-18T13:47:37;100120.00;;;6.17
40199;BMP280;25906;43.536;26.068;2022-12-18T13:50:24;100121.16;;;5.92
40199;BMP280;25906;43.536;26.068;2022-12-18T13:53:22;100114.88;;;6.19
40199;BMP280;25906;43.536;26.068;2022-12-18T13:56:08;100119.78;;;6.15
40199;BMP280;25906;43.536;26.068;2022-12-18T13:59:05;100129.00;;;6.25
40199;BMP280;25906;43.536;26.068;2022-12-18T14:01:57;100135.28;;;5.98
40199;BMP280;25906;43.536;26.068;2022-12-18T14:04:47;100139.13;;;6.08
40199;BMP280;25906;43.536;26.068;2022-12-18T14:07:33;100145.19;;;6.14
40199;BMP280;25906;43.536;26.068;2022-12-18T14:10:19;100143.03;;;6.12
40199;BMP280;25906;43.536;26.068;2022-12-18T14:13:06;100138.00;;;6.33
40199;BMP280;25906;43.536;26.068;2022-12-18T14:15:52;100150.28;;;6.23
40199;BMP280;25906;43.536;26.068;2022-12-18T14:18:55;100148.84;;;6.16
40199;BMP280;25906;43.536;26.068;2022-12-18T14:21:45;100152.38;;;6.00
40199;BMP280;25906;43.536;26.068;2022-12-18T14:24:32;100150.84;;;6.10
40199;BMP280;25906;43.536;26.068;2022-12-18T14:27:24;100148.31;;;5.72
40199;BMP280;25906;43.536;26.068;2022-12-18T14:30:27;100155.19;;;5.79
40199;BMP280;25906;43.536;26.068;2022-12-18T14:36:05;100156.69;;;5.58
40199;BMP280;25906;43.536;26.068;2022-12-18T14:38:59;100150.69;;;5.35
40199;BMP280;25906;43.536;26.068;2022-12-18T14:41:45;100150.69;;;5.25
40199;BMP280;25906;43.536;26.068;2022-12-18T14:44:30;100157.06;;;5.27
40199;BMP280;25906;43.536;26.068;2022-12-18T14:47:16;100165.34;;;5.24
40199;BMP280;25906;43.536;26.068;2022-12-18T14:50:02;100159.25;;;5.12
40199;BMP280;25906;43.536;26.068;2022-12-18T14:52:48;100163.44;;;4.91
40199;BMP280;25906;43.536;26.068;2022-12-18T14:55:34;100159.97;;;5.07
40199;BMP280;25906;43.536;26.068;2022-12-18T14:58:20;100166.59;;;5.01
40199;BMP280;25906;43.536;26.068;2022-12-18T15:01:06;100175.38;;;4.79
40199;BMP280;25906;43.536;26.068;2022-12-18T15:03:53;100182.19;;;4.80
40199;BMP280;25906;43.536;26.068;2022-12-18T15:06:38;100188.28;;;4.81
40199;BMP280;25906;43.536;26.068;2022-12-18T15:09:26;100196.09;;;4.90
40199;BMP280;25906;43.536;26.068;2022-12-18T15:18:35;100199.28;;;4.88
40199;BMP280;25906;43.536;26.068;2022-12-18T15:21:26;100193.66;;;4.81
40199;BMP280;25906;43.536;26.068;2022-12-18T15:24:18;100193.66;;;4.81
40199;BMP280;25906;43.536;26.068;2022-12-18T15:27:04;100196.31;;;4.70
40199;BMP280;25906;43.536;26.068;2022-12-18T15:33:18;100204.88;;;4.74
40199;BMP280;25906;43.536;26.068;2022-12-18T15:36:13;100211.22;;;4.87
40199;BMP280;25906;43.536;26.068;2022-12-18T15:38:59;100215.38;;;4.77
40199;BMP280;25906;43.536;26.068;2022-12-18T15:41:45;100210.97;;;4.75
40199;BMP280;25906;43.536;26.068;2022-12-18T15:44:49;100222.44;;;4.97
40199;BMP280;25906;43.536;26.068;2022-12-18T15:47:34;100227.53;;;4.73
40199;BMP280;25906;43.536;26.068;2022-12-18T15:50:20;100216.28;;;4.53
40199;BMP280;25906;43.536;26.068;2022-12-18T15:53:05;100218.25;;;4.52
40199;BMP280;25906;43.536;26.068;2022-12-18T15:55:53;100216.78;;;4.57
40199;BMP280;25906;43.536;26.068;2022-12-18T15:58:57;100228.50;;;4.59
40199;BMP280;25906;43.536;26.068;2022-12-18T16:01:43;100226.75;;;4.45
40199;BMP280;25906;43.536;26.068;2022-12-18T16:04:28;100228.47;;;4.48
40199;BMP280;25906;43.536;26.068;2022-12-18T16:07:14;100232.38;;;4.53
40199;BMP280;25906;43.536;26.068;2022-12-18T16:10:00;100245.03;;;4.47
40199;BMP280;25906;43.536;26.068;2022-12-18T16:12:45;100248.47;;;4.58
40199;BMP280;25906;43.536;26.068;2022-12-18T16:15:31;100250.47;;;4.74
40199;BMP280;25906;43.536;26.068;2022-12-18T16:18:16;100247.75;;;4.58
40199;BMP280;25906;43.536;26.068;2022-12-18T16:21:02;100251.91;;;4.70
40199;BMP280;25906;43.536;26.068;2022-12-18T16:23:48;100257.47;;;4.50
40199;BMP280;25906;43.536;26.068;2022-12-18T16:26:33;100254.75;;;4.28
40199;BMP280;25906;43.536;26.068;2022-12-18T16:29:24;100264.91;;;4.18
40199;BMP280;25906;43.536;26.068;2022-12-18T16:32:14;100270.28;;;4.24
40199;BMP280;25906;43.536;26.068;2022-12-18T16:35:01;100281.00;;;4.18
40199;BMP280;25906;43.536;26.068;2022-12-18T16:37:46;100275.59;;;4.13
40199;BMP280;25906;43.536;26.068;2022-12-18T16:40:32;100278.88;;;4.28
40199;BMP280;25906;43.536;26.068;2022-12-18T16:43:18;100281.41;;;4.53
40199;BMP280;25906;43.536;26.068;2022-12-18T16:46:03;100291.13;;;4.51
40199;BMP280;25906;43.536;26.068;2022-12-18T16:48:49;100294.97;;;4.44
40199;BMP280;25906;43.536;26.068;2022-12-18T16:51:34;100296.69;;;4.36
40199;BMP280;25906;43.536;26.068;2022-12-18T16:54:20;100285.13;;;4.14
40199;BMP280;25906;43.536;26.068;2022-12-18T16:57:05;100289.81;;;4.24
40199;BMP280;25906;43.536;26.068;2022-12-18T16:59:51;100295.84;;;4.14
40199;BMP280;25906;43.536;26.068;2022-12-18T17:02:37;100306.28;;;4.12
40199;BMP280;25906;43.536;26.068;2022-12-18T17:05:23;100313.41;;;4.15
40199;BMP280;25906;43.536;26.068;2022-12-18T17:08:08;100319.78;;;4.28
40199;BMP280;25906;43.536;26.068;2022-12-18T17:10:53;100328.81;;;4.31
40199;BMP280;25906;43.536;26.068;2022-12-18T17:13:39;100322.84;;;4.11
40199;BMP280;25906;43.536;26.068;2022-12-18T17:16:25;100326.34;;;4.22
40199;BMP280;25906;43.536;26.068;2022-12-18T17:19:11;100335.59;;;4.21
40199;BMP280;25906;43.536;26.068;2022-12-18T17:21:57;100340.28;;;4.31
40199;BMP280;25906;43.536;26.068;2022-12-18T17:24:42;100337.88;;;4.39
40199;BMP280;25906;43.536;26.068;2022-12-18T17:27:28;100344.34;;;4.21
40199;BMP280;25906;43.536;26.068;2022-12-18T17:30:13;100340.34;;;4.48
40199;BMP280;25906;43.536;26.068;2022-12-18T17:32:59;100349.91;;;4.54
40199;BMP280;25906;43.536;26.068;2022-12-18T17:35:44;100355.69;;;4.42
40199;BMP280;25906;43.536;26.068;2022-12-18T17:38:30;100356.97;;;4.57
40199;BMP280;25906;43.536;26.068;2022-12-18T17:41:15;100363.53;;;4.51
40199;BMP280;25906;43.536;26.068;2022-12-18T17:44:03;100356.44;;;4.48
40199;BMP280;25906;43.536;26.068;2022-12-18T17:46:49;100360.59;;;4.49
40199;BMP280;25906;43.536;26.068;2022-12-18T17:49:35;100373.91;;;4.79
40199;BMP280;25906;43.536;26.068;2022-12-18T17:52:20;100382.03;;;4.49
40199;BMP280;25906;43.536;26.068;2022-12-18T17:55:06;100375.00;;;4.51
40199;BMP280;25906;43.536;26.068;2022-12-18T17:57:52;100386.91;;;4.45
40199;BMP280;25906;43.536;26.068;2022-12-18T18:00:38;100383.28;;;4.12
40199;BMP280;25906;43.536;26.068;2022-12-18T18:03:23;100382.00;;;4.43
40199;BMP280;25906;43.536;26.068;2022-12-18T18:06:09;100391.09;;;4.57
40199;BMP280;25906;43.536;26.068;2022-12-18T18:08:54;100391.50;;;4.39